sensor_id;sensor_type;location;lat;lon;timestamp;pressure;altitude;pressure_sealevel;temperature;humidity
83563;BME280;73535;52.500;13.482;2023-12-07T00:01:27;101304.41;;;2.50;83.49
83563;BME280;73535;52.500;13.482;2023-12-07T00:03:53;101309.59;;;2.50;83.46
83563;BME280;73535;52.500;13.482;2023-12-07T00:06:18;101302.66;;;2.51;83.63
83563;BME280;73535;52.500;13.482;2023-12-07T00:08:43;101306.06;;;2.53;83.61
83563;BME280;73535;52.500;13.482;2023-12-07T00:11:08;101301.78;;;2.52;83.45
83563;BME280;73535;52.500;13.482;2023-12-07T00:13:34;101305.31;;;2.49;83.48
83563;BME280;73535;52.500;13.482;2023-12-07T00:15:59;101306.97;;;2.50;83.20
83563;BME280;73535;52.500;13.482;2023-12-07T00:18:24;101308.78;;;2.48;83.54
83563;BME280;73535;52.500;13.482;2023-12-07T00:20:49;101311.28;;;2.51;83.64
83563;BME280;73535;52.500;13.482;2023-12-07T00:23:14;101312.09;;;2.53;83.21
83563;BME280;73535;52.500;13.482;2023-12-07T00:25:40;101310.41;;;2.52;83.65
83563;BME280;73535;52.500;13.482;2023-12-07T00:28:05;101307.81;;;2.52;83.38
83563;BME280;73535;52.500;13.482;2023-12-07T00:30:30;101308.53;;;2.57;83.23
83563;BME280;73535;52.500;13.482;2023-12-07T00:32:55;101307.69;;;2.57;83.57
83563;BME280;73535;52.500;13.482;2023-12-07T00:35:21;101316.41;;;2.54;83.54
83563;BME280;73535;52.500;13.482;2023-12-07T00:37:47;101317.34;;;2.52;83.49
83563;BME280;73535;52.500;13.482;2023-12-07T00:40:12;101317.22;;;2.56;83.57
83563;BME280;73535;52.500;13.482;2023-12-07T00:42:38;101317.22;;;2.56;83.40
83563;BME280;73535;52.500;13.482;2023-12-07T00:45:03;101331.13;;;2.54;83.38
83563;BME280;73535;52.500;13.482;2023-12-07T00:47:29;101327.75;;;2.50;83.31
83563;BME280;73535;52.500;13.482;2023-12-07T00:49:54;101328.56;;;2.52;83.33
83563;BME280;73535;52.500;13.482;2023-12-07T00:52:19;101326.94;;;2.48;83.42
83563;BME280;73535;52.500;13.482;2023-12-07T00:54:44;101326.06;;;2.49;83.45
83563;BME280;73535;52.500;13.482;2023-12-07T00:57:10;101317.38;;;2.50;83.56
83563;BME280;73535;52.500;13.482;2023-12-07T00:59:35;101326.06;;;2.49;83.26
83563;BME280;73535;52.500;13.482;2023-12-07T01:02:02;101332.06;;;2.51;83.51
83563;BME280;73535;52.500;13.482;2023-12-07T01:04:28;101325.94;;;2.54;83.43
83563;BME280;73535;52.500;13.482;2023-12-07T01:06:53;101328.59;;;2.51;83.62
83563;BME280;73535;52.500;13.482;2023-12-07T01:09:18;101335.38;;;2.56;83.21
83563;BME280;73535;52.500;13.482;2023-12-07T01:11:44;101345.03;;;2.51;82.85
83563;BME280;73535;52.500;13.482;2023-12-07T01:14:09;101342.50;;;2.48;83.02
83563;BME280;73535;52.500;13.482;2023-12-07T01:16:36;101352.97;;;2.45;83.34
83563;BME280;73535;52.500;13.482;2023-12-07T01:19:02;101351.25;;;2.44;83.76
83563;BME280;73535;52.500;13.482;2023-12-07T01:21:27;101356.44;;;2.44;83.47
83563;BME280;73535;52.500;13.482;2023-12-07T01:23:52;101363.41;;;2.42;83.54
83563;BME280;73535;52.500;13.482;2023-12-07T01:26:17;101376.31;;;2.45;83.52
83563;BME280;73535;52.500;13.482;2023-12-07T01:28:43;101379.78;;;2.44;83.71
83563;BME280;73535;52.500;13.482;2023-12-07T01:31:08;101380.63;;;2.46;83.31
83563;BME280;73535;52.500;13.482;2023-12-07T01:33:33;101375.44;;;2.46;83.22
83563;BME280;73535;52.500;13.482;2023-12-07T01:35:58;101371.13;;;2.45;83.26
83563;BME280;73535;52.500;13.482;2023-12-07T01:38:24;101377.16;;;2.46;83.67
83563;BME280;73535;52.500;13.482;2023-12-07T01:40:49;101378.94;;;2.44;83.42
83563;BME280;73535;52.500;13.482;2023-12-07T01:43:14;101377.25;;;2.41;83.60
83563;BME280;73535;52.500;13.482;2023-12-07T01:45:39;101382.38;;;2.44;83.58
83563;BME280;73535;52.500;13.482;2023-12-07T01:48:06;101386.69;;;2.45;83.54
83563;BME280;73535;52.500;13.482;2023-12-07T01:50:32;101378.03;;;2.45;83.58
83563;BME280;73535;52.500;13.482;2023-12-07T01:52:59;101392.00;;;2.39;83.73
83563;BME280;73535;52.500;13.482;2023-12-07T01:55:26;101392.00;;;2.41;83.87
83563;BME280;73535;52.500;13.482;2023-12-07T01:57:52;101397.25;;;2.38;84.17
83563;BME280;73535;52.500;13.482;2023-12-07T02:00:18;101403.19;;;2.43;83.79
83563;BME280;73535;52.500;13.482;2023-12-07T02:02:44;101397.00;;;2.47;83.72
83563;BME280;73535;52.500;13.482;2023-12-07T02:05:12;101385.88;;;2.43;83.75
83563;BME280;73535;52.500;13.482;2023-12-07T02:07:38;101395.25;;;2.49;83.89
83563;BME280;73535;52.500;13.482;2023-12-07T02:10:04;101397.94;;;2.44;83.60
83563;BME280;73535;52.500;13.482;2023-12-07T02:12:29;101392.00;;;2.41;83.69
83563;BME280;73535;52.500;13.482;2023-12-07T02:14:55;101392.53;;;2.53;83.69
83563;BME280;73535;52.500;13.482;2023-12-07T02:17:25;101396.97;;;2.48;83.50
83563;BME280;73535;52.500;13.482;2023-12-07T02:19:56;101396.94;;;2.50;83.50
83563;BME280;73535;52.500;13.482;2023-12-07T02:22:27;101399.44;;;2.54;83.47
83563;BME280;73535;52.500;13.482;2023-12-07T02:25:04;101398.63;;;2.52;83.47
83563;BME280;73535;52.500;13.482;2023-12-07T02:27:41;101390.72;;;2.57;83.37
83563;BME280;73535;52.500;13.482;2023-12-07T02:30:08;101387.09;;;2.62;83.22
83563;BME280;73535;52.500;13.482;2023-12-07T02:32:38;101390.72;;;2.57;82.73
83563;BME280;73535;52.500;13.482;2023-12-07T02:35:05;101397.63;;;2.58;82.97
83563;BME280;73535;52.500;13.482;2023-12-07T02:37:32;101396.09;;;2.49;83.09
83563;BME280;73535;52.500;13.482;2023-12-07T02:39:59;101402.91;;;2.53;83.18
83563;BME280;73535;52.500;13.482;2023-12-07T02:42:25;101405.63;;;2.49;83.11
83563;BME280;73535;52.500;13.482;2023-12-07T02:44:52;101411.53;;;2.54;83.35
83563;BME280;73535;52.500;13.482;2023-12-07T02:47:18;101412.41;;;2.54;83.02
83563;BME280;73535;52.500;13.482;2023-12-07T02:49:43;101410.69;;;2.53;83.12
83563;BME280;73535;52.500;13.482;2023-12-07T02:52:08;101415.88;;;2.53;83.19
83563;BME280;73535;52.500;13.482;2023-12-07T02:54:34;101414.22;;;2.51;83.34
83563;BME280;73535;52.500;13.482;2023-12-07T02:56:59;101409.81;;;2.54;83.32
83563;BME280;73535;52.500;13.482;2023-12-07T02:59:24;101413.25;;;2.55;82.82
83563;BME280;73535;52.500;13.482;2023-12-07T03:01:49;101420.81;;;2.64;82.93
83563;BME280;73535;52.500;13.482;2023-12-07T03:04:15;101420.75;;;2.65;82.82
83563;BME280;73535;52.500;13.482;2023-12-07T03:06:40;101424.31;;;2.61;83.05
83563;BME280;73535;52.500;13.482;2023-12-07T03:09:05;101420.09;;;2.57;83.11
83563;BME280;73535;52.500;13.482;2023-12-07T03:11:31;101428.69;;;2.61;82.83
83563;BME280;73535;52.500;13.482;2023-12-07T03:13:56;101427.84;;;2.59;82.97
83563;BME280;73535;52.500;13.482;2023-12-07T03:16:21;101425.94;;;2.65;83.11
83563;BME280;73535;52.500;13.482;2023-12-07T03:18:46;101425.09;;;2.65;83.20
83563;BME280;73535;52.500;13.482;2023-12-07T03:21:12;101425.88;;;2.68;82.88
83563;BME280;73535;52.500;13.482;2023-12-07T03:23:37;101432.03;;;2.64;82.91
83563;BME280;73535;52.500;13.482;2023-12-07T03:26:02;101431.16;;;2.65;83.06
83563;BME280;73535;52.500;13.482;2023-12-07T03:28:27;101437.28;;;2.61;82.89
83563;BME280;73535;52.500;13.482;2023-12-07T03:30:53;101436.47;;;2.59;82.60
83563;BME280;73535;52.500;13.482;2023-12-07T03:33:18;101437.28;;;2.61;82.80
83563;BME280;73535;52.500;13.482;2023-12-07T03:35:43;101438.13;;;2.63;82.66
83563;BME280;73535;52.500;13.482;2023-12-07T03:38:08;101440.66;;;2.65;82.50
83563;BME280;73535;52.500;13.482;2023-12-07T03:40:34;101440.81;;;2.59;82.40
83563;BME280;73535;52.500;13.482;2023-12-07T03:42:59;101444.25;;;2.59;82.63
83563;BME280;73535;52.500;13.482;2023-12-07T03:45:24;101447.56;;;2.66;82.45
83563;BME280;73535;52.500;13.482;2023-12-07T03:47:49;101450.25;;;2.61;82.67
83563;BME280;73535;52.500;13.482;2023-12-07T03:50:15;101452.09;;;2.58;82.40
83563;BME280;73535;52.500;13.482;2023-12-07T03:52:40;101457.25;;;2.59;82.52
83563;BME280;73535;52.500;13.482;2023-12-07T03:55:05;101458.94;;;2.60;82.46
83563;BME280;73535;52.500;13.482;2023-12-07T03:57:31;101462.44;;;2.59;82.58
83563;BME280;73535;52.500;13.482;2023-12-07T03:59:56;101453.84;;;2.57;82.43
83563;BME280;73535;52.500;13.482;2023-12-07T04:02:21;101459.88;;;2.58;82.39
83563;BME280;73535;52.500;13.482;2023-12-07T04:04:47;101452.91;;;2.60;82.33
83563;BME280;73535;52.500;13.482;2023-12-07T04:07:12;101449.53;;;2.56;82.31
83563;BME280;73535;52.500;13.482;2023-12-07T04:09:38;101451.13;;;2.62;82.53
83563;BME280;73535;52.500;13.482;2023-12-07T04:12:03;101448.44;;;2.66;82.49
83563;BME280;73535;52.500;13.482;2023-12-07T04:14:28;101451.03;;;2.66;82.35
83563;BME280;73535;52.500;13.482;2023-12-07T04:16:53;101454.56;;;2.62;82.65
83563;BME280;73535;52.500;13.482;2023-12-07T04:19:19;101455.38;;;2.64;82.51
83563;BME280;73535;52.500;13.482;2023-12-07T04:21:44;101456.28;;;2.63;82.20
83563;BME280;73535;52.500;13.482;2023-12-07T04:24:09;101460.56;;;2.64;82.12
83563;BME280;73535;52.500;13.482;2023-12-07T04:26:34;101453.69;;;2.63;82.04
83563;BME280;73535;52.500;13.482;2023-12-07T04:29:00;101460.63;;;2.63;81.90
83563;BME280;73535;52.500;13.482;2023-12-07T04:31:25;101463.28;;;2.60;82.13
83563;BME280;73535;52.500;13.482;2023-12-07T04:33:50;101468.47;;;2.60;81.86
83563;BME280;73535;52.500;13.482;2023-12-07T04:36:16;101464.94;;;2.62;81.58
83563;BME280;73535;52.500;13.482;2023-12-07T04:38:41;101465.75;;;2.64;82.04
83563;BME280;73535;52.500;13.482;2023-12-07T04:41:06;101475.31;;;2.62;81.94
83563;BME280;73535;52.500;13.482;2023-12-07T04:43:32;101480.53;;;2.62;81.82
83563;BME280;73535;52.500;13.482;2023-12-07T04:45:57;101489.19;;;2.61;81.93
83563;BME280;73535;52.500;13.482;2023-12-07T04:48:22;101484.84;;;2.63;81.68
83563;BME280;73535;52.500;13.482;2023-12-07T04:50:47;101492.69;;;2.60;81.86
83563;BME280;73535;52.500;13.482;2023-12-07T04:53:13;101491.72;;;2.64;81.76
83563;BME280;73535;52.500;13.482;2023-12-07T04:55:38;101490.94;;;2.61;81.91
83563;BME280;73535;52.500;13.482;2023-12-07T04:58:04;101499.56;;;2.61;81.70
83563;BME280;73535;52.500;13.482;2023-12-07T05:00:29;101496.09;;;2.62;81.90
83563;BME280;73535;52.500;13.482;2023-12-07T05:02:54;101497.81;;;2.63;81.71
83563;BME280;73535;52.500;13.482;2023-12-07T05:05:19;101499.53;;;2.63;81.80
83563;BME280;73535;52.500;13.482;2023-12-07T05:07:45;101503.81;;;2.65;82.16
83563;BME280;73535;52.500;13.482;2023-12-07T05:10:10;101494.34;;;2.63;81.78
83563;BME280;73535;52.500;13.482;2023-12-07T05:12:35;101502.09;;;2.64;81.69
83563;BME280;73535;52.500;13.482;2023-12-07T05:15:01;101503.00;;;2.63;81.64
83563;BME280;73535;52.500;13.482;2023-12-07T05:17:28;101499.53;;;2.63;81.54
83563;BME280;73535;52.500;13.482;2023-12-07T05:19:53;101505.53;;;2.66;81.38
83563;BME280;73535;52.500;13.482;2023-12-07T05:22:18;101502.84;;;2.69;80.99
83563;BME280;73535;52.500;13.482;2023-12-07T05:24:43;101498.63;;;2.65;81.63
83563;BME280;73535;52.500;13.482;2023-12-07T05:27:08;101497.69;;;2.68;81.05
83563;BME280;73535;52.500;13.482;2023-12-07T05:29:34;101501.06;;;2.71;80.99
83563;BME280;73535;52.500;13.482;2023-12-07T05:31:59;101503.72;;;2.68;81.02
83563;BME280;73535;52.500;13.482;2023-12-07T05:34:24;101506.31;;;2.68;81.27
83563;BME280;73535;52.500;13.482;2023-12-07T05:36:49;101510.56;;;2.72;81.19
83563;BME280;73535;52.500;13.482;2023-12-07T05:39:15;101514.00;;;2.73;80.65
83563;BME280;73535;52.500;13.482;2023-12-07T05:41:42;101507.97;;;2.72;80.97
83563;BME280;73535;52.500;13.482;2023-12-07T05:44:08;101508.91;;;2.70;81.39
83563;BME280;73535;52.500;13.482;2023-12-07T05:46:35;101499.88;;;2.84;80.91
83563;BME280;73535;52.500;13.482;2023-12-07T05:49:00;101504.31;;;2.81;80.95
83563;BME280;73535;52.500;13.482;2023-12-07T05:51:25;101503.72;;;2.68;81.40
83563;BME280;73535;52.500;13.482;2023-12-07T05:53:51;101506.59;;;2.56;82.10
83563;BME280;73535;52.500;13.482;2023-12-07T05:56:19;101505.00;;;2.52;82.16
83563;BME280;73535;52.500;13.482;2023-12-07T05:58:45;101502.47;;;2.49;82.53
83563;BME280;73535;52.500;13.482;2023-12-07T06:01:10;101505.94;;;2.48;82.20
83563;BME280;73535;52.500;13.482;2023-12-07T06:03:36;101506.88;;;2.46;82.61
83563;BME280;73535;52.500;13.482;2023-12-07T06:06:01;101505.09;;;2.48;82.51
83563;BME280;73535;52.500;13.482;2023-12-07T06:08:26;101513.84;;;2.42;82.50
83563;BME280;73535;52.500;13.482;2023-12-07T06:10:51;101516.44;;;2.42;82.71
83563;BME280;73535;52.500;13.482;2023-12-07T06:13:16;101528.53;;;2.43;82.69
83563;BME280;73535;52.500;13.482;2023-12-07T06:15:42;101517.09;;;2.52;82.97
83563;BME280;73535;52.500;13.482;2023-12-07T06:18:07;101528.22;;;2.57;82.68
83563;BME280;73535;52.500;13.482;2023-12-07T06:20:33;101527.28;;;2.61;82.43
83563;BME280;73535;52.500;13.482;2023-12-07T06:23:00;101527.22;;;2.64;82.15
83563;BME280;73535;52.500;13.482;2023-12-07T06:25:25;101532.31;;;2.67;82.12
83563;BME280;73535;52.500;13.482;2023-12-07T06:27:50;101528.88;;;2.66;82.43
83563;BME280;73535;52.500;13.482;2023-12-07T06:30:16;101536.59;;;2.69;82.31
83563;BME280;73535;52.500;13.482;2023-12-07T06:32:41;101539.03;;;2.75;82.06
83563;BME280;73535;52.500;13.482;2023-12-07T06:35:07;101541.72;;;2.72;82.22
83563;BME280;73535;52.500;13.482;2023-12-07T06:37:32;101546.97;;;2.69;82.11
83563;BME280;73535;52.500;13.482;2023-12-07T06:39:57;101549.59;;;2.68;82.17
83563;BME280;73535;52.500;13.482;2023-12-07T06:42:25;101555.69;;;2.65;82.11
83563;BME280;73535;52.500;13.482;2023-12-07T06:44:50;101555.78;;;2.62;82.13
83563;BME280;73535;52.500;13.482;2023-12-07T06:47:15;101568.78;;;2.61;82.02
83563;BME280;73535;52.500;13.482;2023-12-07T06:49:41;101565.16;;;2.68;82.03
83563;BME280;73535;52.500;13.482;2023-12-07T06:52:06;101562.69;;;2.63;82.30
83563;BME280;73535;52.500;13.482;2023-12-07T06:54:31;101567.88;;;2.63;82.30
83563;BME280;73535;52.500;13.482;2023-12-07T06:56:57;101572.22;;;2.61;82.15
83563;BME280;73535;52.500;13.482;2023-12-07T06:59:22;101576.59;;;2.61;82.31
83563;BME280;73535;52.500;13.482;2023-12-07T07:01:47;101566.22;;;2.59;82.53
83563;BME280;73535;52.500;13.482;2023-12-07T07:04:12;101570.47;;;2.63;82.02
83563;BME280;73535;52.500;13.482;2023-12-07T07:06:39;101564.38;;;2.64;82.07
83563;BME280;73535;52.500;13.482;2023-12-07T07:09:05;101572.22;;;2.61;82.30
83563;BME280;73535;52.500;13.482;2023-12-07T07:11:30;101570.47;;;2.62;82.00
83563;BME280;73535;52.500;13.482;2023-12-07T07:13:55;101575.66;;;2.63;82.02
83563;BME280;73535;52.500;13.482;2023-12-07T07:16:20;101573.97;;;2.61;81.74
83563;BME280;73535;52.500;13.482;2023-12-07T07:18:46;101575.66;;;2.62;82.22
83563;BME280;73535;52.500;13.482;2023-12-07T07:21:11;101580.78;;;2.66;81.57
83563;BME280;73535;52.500;13.482;2023-12-07T07:23:37;101577.31;;;2.66;81.53
83563;BME280;73535;52.500;13.482;2023-12-07T07:26:02;101576.47;;;2.65;81.45
83563;BME280;73535;52.500;13.482;2023-12-07T07:28:28;101574.72;;;2.66;81.57
83563;BME280;73535;52.500;13.482;2023-12-07T07:30:53;101583.38;;;2.66;81.31
83563;BME280;73535;52.500;13.482;2023-12-07T07:33:18;101584.19;;;2.68;81.32
83563;BME280;73535;52.500;13.482;2023-12-07T07:35:43;101579.91;;;2.66;81.39
83563;BME280;73535;52.500;13.482;2023-12-07T07:38:09;101579.88;;;2.67;81.45
83563;BME280;73535;52.500;13.482;2023-12-07T07:40:34;101586.72;;;2.71;81.57
83563;BME280;73535;52.500;13.482;2023-12-07T07:42:59;101581.31;;;2.80;81.32
83563;BME280;73535;52.500;13.482;2023-12-07T07:45:25;101582.25;;;2.78;81.56
83563;BME280;73535;52.500;13.482;2023-12-07T07:47:50;101581.44;;;2.74;81.50
83563;BME280;73535;52.500;13.482;2023-12-07T07:50:15;101585.84;;;2.71;81.04
83563;BME280;73535;52.500;13.482;2023-12-07T07:52:41;101587.56;;;2.72;81.44
83563;BME280;73535;52.500;13.482;2023-12-07T07:55:07;101584.91;;;2.75;81.19
83563;BME280;73535;52.500;13.482;2023-12-07T07:57:32;101584.84;;;2.76;81.20
83563;BME280;73535;52.500;13.482;2023-12-07T07:59:58;101584.84;;;2.76;81.34
83563;BME280;73535;52.500;13.482;2023-12-07T08:02:23;101583.25;;;2.72;81.13
83563;BME280;73535;52.500;13.482;2023-12-07T08:04:49;101588.44;;;2.72;81.23
83563;BME280;73535;52.500;13.482;2023-12-07T08:07:14;101592.69;;;2.75;81.17
83563;BME280;73535;52.500;13.482;2023-12-07T08:09:40;101595.31;;;2.73;81.27
83563;BME280;73535;52.500;13.482;2023-12-07T08:12:06;101598.81;;;2.72;81.31
83563;BME280;73535;52.500;13.482;2023-12-07T08:14:35;101595.31;;;2.73;80.78
83563;BME280;73535;52.500;13.482;2023-12-07T08:17:00;101591.84;;;2.74;80.48
83563;BME280;73535;52.500;13.482;2023-12-07T08:19:25;101591.03;;;2.72;80.68
83563;BME280;73535;52.500;13.482;2023-12-07T08:21:50;101601.34;;;2.74;80.85
83563;BME280;73535;52.500;13.482;2023-12-07T08:24:16;101604.81;;;2.74;81.06
83563;BME280;73535;52.500;13.482;2023-12-07T08:26:41;101602.16;;;2.77;80.92
83563;BME280;73535;52.500;13.482;2023-12-07T08:29:06;101609.06;;;2.78;80.78
83563;BME280;73535;52.500;13.482;2023-12-07T08:31:31;101608.16;;;2.79;80.53
83563;BME280;73535;52.500;13.482;2023-12-07T08:33:57;101616.00;;;2.76;80.44
83563;BME280;73535;52.500;13.482;2023-12-07T08:36:22;101616.00;;;2.76;80.99
83563;BME280;73535;52.500;13.482;2023-12-07T08:38:48;101614.25;;;2.78;80.68
83563;BME280;73535;52.500;13.482;2023-12-07T08:41:13;101616.00;;;2.76;80.31
83563;BME280;73535;52.500;13.482;2023-12-07T08:43:38;101608.19;;;2.78;80.51
83563;BME280;73535;52.500;13.482;2023-12-07T08:46:03;101618.44;;;2.84;80.56
83563;BME280;73535;52.500;13.482;2023-12-07T08:48:29;101622.78;;;2.83;80.42
83563;BME280;73535;52.500;13.482;2023-12-07T08:50:55;101627.03;;;2.86;80.68
83563;BME280;73535;52.500;13.482;2023-12-07T08:53:20;101623.63;;;2.84;80.24
83563;BME280;73535;52.500;13.482;2023-12-07T08:55:45;101626.25;;;2.82;80.28
83563;BME280;73535;52.500;13.482;2023-12-07T08:58:10;101624.56;;;2.81;80.63
83563;BME280;73535;52.500;13.482;2023-12-07T09:00:36;101630.56;;;2.82;80.21
83563;BME280;73535;52.500;13.482;2023-12-07T09:03:01;101626.31;;;2.79;80.44
83563;BME280;73535;52.500;13.482;2023-12-07T09:05:27;101627.97;;;2.83;80.47
83563;BME280;73535;52.500;13.482;2023-12-07T09:07:52;101627.03;;;2.86;80.74
83563;BME280;73535;52.500;13.482;2023-12-07T09:10:18;101634.94;;;2.81;80.47
83563;BME280;73535;52.500;13.482;2023-12-07T09:12:43;101629.69;;;2.83;80.53
83563;BME280;73535;52.500;13.482;2023-12-07T09:15:09;101634.03;;;2.84;80.57
83563;BME280;73535;52.500;13.482;2023-12-07T09:17:35;101635.69;;;2.85;80.78
83563;BME280;73535;52.500;13.482;2023-12-07T09:20:00;101635.63;;;2.90;80.53
83563;BME280;73535;52.500;13.482;2023-12-07T09:22:26;101624.38;;;2.89;80.28
83563;BME280;73535;52.500;13.482;2023-12-07T09:24:51;101627.78;;;2.91;80.26
83563;BME280;73535;52.500;13.482;2023-12-07T09:27:16;101626.97;;;2.89;80.06
83563;BME280;73535;52.500;13.482;2023-12-07T09:29:42;101634.72;;;2.91;80.15
83563;BME280;73535;52.500;13.482;2023-12-07T09:32:07;101636.47;;;2.90;79.98
83563;BME280;73535;52.500;13.482;2023-12-07T09:34:33;101634.75;;;2.89;80.03
83563;BME280;73535;52.500;13.482;2023-12-07T09:37:10;101639.06;;;2.90;79.95
83563;BME280;73535;52.500;13.482;2023-12-07T09:39:36;101635.50;;;2.94;80.21
83563;BME280;73535;52.500;13.482;2023-12-07T09:42:01;101636.31;;;2.96;79.93
83563;BME280;73535;52.500;13.482;2023-12-07T09:44:26;101641.56;;;2.95;80.37
83563;BME280;73535;52.500;13.482;2023-12-07T09:46:52;101637.22;;;2.95;80.41
83563;BME280;73535;52.500;13.482;2023-12-07T09:49:17;101638.88;;;2.98;80.41
83563;BME280;73535;52.500;13.482;2023-12-07T09:51:44;101649.34;;;2.95;80.16
83563;BME280;73535;52.500;13.482;2023-12-07T09:54:09;101643.22;;;2.99;79.78
83563;BME280;73535;52.500;13.482;2023-12-07T09:56:35;101656.19;;;2.97;80.18
83563;BME280;73535;52.500;13.482;2023-12-07T09:59:01;101650.22;;;2.94;80.25
83563;BME280;73535;52.500;13.482;2023-12-07T10:01:29;101645.94;;;2.93;80.21
83563;BME280;73535;52.500;13.482;2023-12-07T10:04:14;101655.47;;;2.91;80.36
83563;BME280;73535;52.500;13.482;2023-12-07T10:06:43;101658.88;;;2.94;80.37
83563;BME280;73535;52.500;13.482;2023-12-07T10:09:15;101658.78;;;2.99;80.13
83563;BME280;73535;52.500;13.482;2023-12-07T10:11:41;101655.34;;;2.97;80.59
83563;BME280;73535;52.500;13.482;2023-12-07T10:14:07;101653.44;;;3.05;80.48
83563;BME280;73535;52.500;13.482;2023-12-07T10:16:33;101643.88;;;3.05;79.91
83563;BME280;73535;52.500;13.482;2023-12-07T10:19:15;101649.94;;;3.06;80.07
83563;BME280;73535;52.500;13.482;2023-12-07T10:21:43;101644.75;;;3.06;79.56
83563;BME280;73535;52.500;13.482;2023-12-07T10:24:09;101641.34;;;3.04;79.54
83563;BME280;73535;52.500;13.482;2023-12-07T10:26:34;101643.88;;;3.07;79.70
83563;BME280;73535;52.500;13.482;2023-12-07T10:29:01;101633.50;;;3.05;79.63
83563;BME280;73535;52.500;13.482;2023-12-07T10:31:27;101627.38;;;3.08;79.61
83563;BME280;73535;52.500;13.482;2023-12-07T10:33:52;101632.56;;;3.08;79.62
83563;BME280;73535;52.500;13.482;2023-12-07T10:36:17;101633.28;;;3.16;79.85
83563;BME280;73535;52.500;13.482;2023-12-07T10:38:42;101640.28;;;3.12;79.48
83563;BME280;73535;52.500;13.482;2023-12-07T10:41:12;101638.50;;;3.14;79.45
83563;BME280;73535;52.500;13.482;2023-12-07T10:43:42;101639.47;;;3.10;79.69
83563;BME280;73535;52.500;13.482;2023-12-07T10:46:08;101647.22;;;3.12;79.59
83563;BME280;73535;52.500;13.482;2023-12-07T10:48:34;101636.81;;;3.12;79.66
83563;BME280;73535;52.500;13.482;2023-12-07T10:51:02;101634.16;;;3.15;79.66
83563;BME280;73535;52.500;13.482;2023-12-07T10:53:37;101637.63;;;3.14;79.59
83563;BME280;73535;52.500;13.482;2023-12-07T10:56:13;101638.53;;;3.13;79.94
83563;BME280;73535;52.500;13.482;2023-12-07T10:58:41;101634.22;;;3.12;79.82
83563;BME280;73535;52.500;13.482;2023-12-07T11:01:08;101629.91;;;3.11;80.10
83563;BME280;73535;52.500;13.482;2023-12-07T11:03:36;101635.94;;;3.13;80.40
83563;BME280;73535;52.500;13.482;2023-12-07T11:06:02;101641.06;;;3.16;80.53
83563;BME280;73535;52.500;13.482;2023-12-07T11:08:32;101634.94;;;3.18;80.26
83563;BME280;73535;52.500;13.482;2023-12-07T11:11:22;101635.88;;;3.16;80.37
83563;BME280;73535;52.500;13.482;2023-12-07T11:16:40;101621.03;;;3.19;80.32
83563;BME280;73535;52.500;13.482;2023-12-07T11:19:44;101618.28;;;3.27;80.14
83563;BME280;73535;52.500;13.482;2023-12-07T11:22:12;101625.19;;;3.28;80.05
83563;BME280;73535;52.500;13.482;2023-12-07T11:24:45;101620.06;;;3.25;79.94
83563;BME280;73535;52.500;13.482;2023-12-07T11:27:16;101618.38;;;3.22;80.10
83563;BME280;73535;52.500;13.482;2023-12-07T11:29:41;101612.28;;;3.25;79.79
83563;BME280;73535;52.500;13.482;2023-12-07T11:32:07;101615.63;;;3.28;79.87
83563;BME280;73535;52.500;13.482;2023-12-07T11:34:35;101616.56;;;3.26;79.84
83563;BME280;73535;52.500;13.482;2023-12-07T11:37:04;101616.41;;;3.32;79.49
83563;BME280;73535;52.500;13.482;2023-12-07T11:39:34;101611.34;;;3.27;79.58
83563;BME280;73535;52.500;13.482;2023-12-07T11:42:06;101606.16;;;3.26;79.67
83563;BME280;73535;52.500;13.482;2023-12-07T11:44:33;101603.66;;;3.23;80.09
83563;BME280;73535;52.500;13.482;2023-12-07T11:46:58;101607.81;;;3.30;80.44
83563;BME280;73535;52.500;13.482;2023-12-07T11:49:24;101601.97;;;3.22;80.48
83563;BME280;73535;52.500;13.482;2023-12-07T11:51:49;101607.09;;;3.23;80.65
83563;BME280;73535;52.500;13.482;2023-12-07T11:54:15;101611.50;;;3.21;80.66
83563;BME280;73535;52.500;13.482;2023-12-07T11:56:42;101607.16;;;3.22;80.51
83563;BME280;73535;52.500;13.482;2023-12-07T11:59:07;101604.50;;;3.23;80.47
83563;BME280;73535;52.500;13.482;2023-12-07T12:01:32;101602.84;;;3.21;80.04
83563;BME280;73535;52.500;13.482;2023-12-07T12:03:58;101616.69;;;3.21;80.32
83563;BME280;73535;52.500;13.482;2023-12-07T12:06:24;101612.31;;;3.23;80.31
83563;BME280;73535;52.500;13.482;2023-12-07T12:08:49;101618.44;;;3.21;80.30
83563;BME280;73535;52.500;13.482;2023-12-07T12:11:14;101614.16;;;3.18;80.02
83563;BME280;73535;52.500;13.482;2023-12-07T12:13:40;101616.72;;;3.20;80.33
83563;BME280;73535;52.500;13.482;2023-12-07T12:16:06;101604.56;;;3.20;80.46
83563;BME280;73535;52.500;13.482;2023-12-07T12:18:32;101602.84;;;3.21;80.64
83563;BME280;73535;52.500;13.482;2023-12-07T12:20:58;101615.81;;;3.21;80.49
83563;BME280;73535;52.500;13.482;2023-12-07T12:23:24;101602.78;;;3.22;80.47
83563;BME280;73535;52.500;13.482;2023-12-07T12:25:49;101608.78;;;3.26;80.65
83563;BME280;73535;52.500;13.482;2023-12-07T12:28:16;101605.31;;;3.25;80.64
83563;BME280;73535;52.500;13.482;2023-12-07T12:30:42;101608.09;;;3.18;80.83
83563;BME280;73535;52.500;13.482;2023-12-07T12:33:07;101602.06;;;3.17;81.00
83563;BME280;73535;52.500;13.482;2023-12-07T12:35:32;101609.81;;;3.19;81.46
83563;BME280;73535;52.500;13.482;2023-12-07T12:37:58;101607.16;;;3.22;81.48
83563;BME280;73535;52.500;13.482;2023-12-07T12:40:23;101609.75;;;3.22;81.70
83563;BME280;73535;52.500;13.482;2023-12-07T12:42:50;101615.03;;;3.19;81.59
83563;BME280;73535;52.500;13.482;2023-12-07T12:45:16;101615.91;;;3.18;81.70
83563;BME280;73535;52.500;13.482;2023-12-07T12:47:44;101614.00;;;3.24;81.68